Time,TemperatureF,DewpointF,PressureIn,WindDirection,WindDirectionDegrees,WindSpeedMPH,WindSpeedGustMPH,Humidity,HourlyPrecipIn,Conditions,Clouds,dailyrainin,SolarRadiationWatts/m^2,SoftwareType,DateUTC
2013-10-15 00:04:00,45.0,44.0,-100.00,SE,124,0.0,2.0,98,0.00,,,0.12,0.000000,,2013-10-15 04:04:00,
2013-10-15 00:14:00,45.0,44.0,-100.00,SE,124,0.0,2.0,98,0.00,,,0.12,0.000000,,2013-10-15 04:14:00,
2013-10-15 00:24:00,45.0,44.0,-100.00,SE,124,0.0,2.0,98,0.00,,,0.12,0.000000,,2013-10-15 04:24:00,
2013-10-15 00:54:00,43.0,42.0,-100.00,SW,218,0.0,3.0,98,0.00,,,0.10,0.000000,,2013-10-15 04:54:00,
2013-10-15 01:03:00,43.0,42.0,-100.00,SW,218,0.0,3.0,98,0.00,,,0.10,0.000000,,2013-10-15 05:03:00,
2013-10-15 01:13:00,43.0,42.0,-100.00,SW,218,0.0,3.0,98,0.00,,,0.10,0.000000,,2013-10-15 05:13:00,
2013-10-15 01:22:00,43.0,42.0,-100.00,SW,218,0.0,3.0,98,0.00,,,0.10,0.000000,,2013-10-15 05:22:00,
2013-10-15 01:53:00,42.0,42.0,-100.00,SE,131,0.0,2.0,99,0.00,,,0.08,0.000000,,2013-10-15 05:53:00,
2013-10-15 02:03:00,42.0,42.0,-100.00,SE,131,0.0,2.0,99,0.00,,,0.08,0.000000,,2013-10-15 06:03:00,
2013-10-15 02:12:00,42.0,42.0,-100.00,SE,131,0.0,2.0,99,0.00,,,0.08,0.000000,,2013-10-15 06:12:00,
2013-10-15 02:22:00,42.0,42.0,-100.00,SE,131,0.0,2.0,99,0.00,,,0.08,0.000000,,2013-10-15 06:22:00,
2013-10-15 02:52:00,42.0,42.0,-100.00,East,96,0.0,2.0,99,0.00,,,0.06,0.000000,,2013-10-15 06:52:00,
2013-10-15 03:02:00,42.0,42.0,-100.00,East,96,0.0,2.0,99,0.00,,,0.06,0.000000,,2013-10-15 07:02:00,
2013-10-15 03:12:00,42.0,42.0,-100.00,East,96,0.0,2.0,99,0.00,,,0.06,0.000000,,2013-10-15 07:12:00,
2013-10-15 03:22:00,42.0,42.0,-100.00,East,96,0.0,2.0,99,0.00,,,0.06,0.000000,,2013-10-15 07:22:00,
2013-10-15 03:53:00,41.0,41.0,-100.00,ESE,108,1.0,5.0,99,0.00,,,0.04,0.000000,,2013-10-15 07:53:00,
2013-10-15 04:02:00,41.0,41.0,-100.00,ESE,108,1.0,5.0,99,0.00,,,0.04,0.000000,,2013-10-15 08:02:00,
2013-10-15 04:12:00,41.0,41.0,-100.00,ESE,108,1.0,5.0,99,0.00,,,0.04,0.000000,,2013-10-15 08:12:00,
2013-10-15 04:22:00,41.0,41.0,-100.00,ESE,108,1.0,5.0,99,0.00,,,0.04,0.000000,,2013-10-15 08:22:00,
2013-10-15 04:52:00,41.0,41.0,-100.00,ESE,112,0.0,4.0,99,0.00,,,0.01,0.000000,,2013-10-15 08:52:00,
2013-10-15 05:02:00,41.0,41.0,-100.00,ESE,112,0.0,4.0,99,0.00,,,0.01,0.000000,,2013-10-15 09:02:00,
2013-10-15 05:12:00,41.0,41.0,-100.00,ESE,112,0.0,4.0,99,0.00,,,0.01,0.000000,,2013-10-15 09:12:00,
2013-10-15 05:22:00,41.0,41.0,-100.00,ESE,112,0.0,4.0,99,0.00,,,0.01,0.000000,,2013-10-15 09:22:00,
2013-10-15 05:53:00,40.0,40.0,-100.00,ESE,111,0.0,2.0,99,0.00,,,0.00,0.000000,,2013-10-15 09:53:00,
2013-10-15 06:03:00,40.0,40.0,-100.00,ESE,111,0.0,2.0,99,0.00,,,0.00,0.000000,,2013-10-15 10:03:00,
2013-10-15 06:13:00,40.0,40.0,-100.00,ESE,111,0.0,2.0,99,0.00,,,0.00,0.000000,,2013-10-15 10:13:00,
2013-10-15 06:23:00,40.0,40.0,-100.00,ESE,111,0.0,2.0,99,0.00,,,0.00,0.000000,,2013-10-15 10:23:00,
2013-10-15 06:53:00,43.0,43.0,-100.00,ESE,103,2.0,4.0,100,0.00,,,0.00,0.000000,,2013-10-15 10:53:00,
2013-10-15 07:02:00,43.0,43.0,-100.00,ESE,103,2.0,4.0,100,0.00,,,0.00,0.000000,,2013-10-15 11:02:00,
2013-10-15 07:12:00,43.0,43.0,-100.00,ESE,103,2.0,4.0,100,0.00,,,0.00,0.000000,,2013-10-15 11:12:00,
2013-10-15 07:22:00,43.0,43.0,-100.00,ESE,103,2.0,4.0,100,0.00,,,0.00,0.000000,,2013-10-15 11:22:00,
2013-10-15 07:53:00,42.0,42.0,-100.00,ESE,113,1.0,4.0,99,0.00,,,0.00,0.000000,,2013-10-15 11:53:00,
2013-10-15 08:01:00,42.0,42.0,-100.00,ESE,113,1.0,4.0,99,0.00,,,0.00,0.000000,,2013-10-15 12:01:00,
2013-10-15 08:12:00,42.0,42.0,-100.00,ESE,113,1.0,4.0,99,0.00,,,0.00,0.000000,,2013-10-15 12:12:00,
2013-10-15 08:22:00,42.0,42.0,-100.00,ESE,113,1.0,4.0,99,0.00,,,0.00,0.000000,,2013-10-15 12:22:00,
2013-10-15 08:52:00,44.0,44.0,-100.00,ESE,104,1.0,3.0,99,0.00,,,0.00,13.000000,,2013-10-15 12:52:00,
2013-10-15 09:02:00,44.0,44.0,-100.00,ESE,104,1.0,3.0,99,0.00,,,0.00,13.000000,,2013-10-15 13:02:00,
2013-10-15 09:11:00,44.0,44.0,-100.00,ESE,104,1.0,3.0,99,0.00,,,0.00,13.000000,,2013-10-15 13:11:00,
2013-10-15 09:21:00,44.0,44.0,-100.00,ESE,104,1.0,3.0,99,0.00,,,0.00,13.000000,,2013-10-15 13:21:00,
2013-10-15 09:52:00,53.0,50.0,-100.00,ESE,111,5.0,7.0,89,0.00,,,0.00,179.000000,,2013-10-15 13:52:00,
2013-10-15 10:02:00,53.0,50.0,-100.00,ESE,111,5.0,7.0,89,0.00,,,0.00,179.000000,,2013-10-15 14:02:00,
2013-10-15 10:12:00,53.0,50.0,-100.00,ESE,111,5.0,7.0,89,0.00,,,0.00,179.000000,,2013-10-15 14:12:00,
2013-10-15 10:22:00,53.0,50.0,-100.00,ESE,111,5.0,7.0,89,0.00,,,0.00,179.000000,,2013-10-15 14:22:00,
2013-10-15 10:52:00,59.0,52.0,-100.00,ESE,103,6.0,11.0,79,0.00,,,0.00,292.000000,,2013-10-15 14:52:00,
2013-10-15 11:02:00,59.0,52.0,-100.00,ESE,103,6.0,11.0,79,0.00,,,0.00,292.000000,,2013-10-15 15:02:00,
2013-10-15 11:11:00,59.0,52.0,-100.00,ESE,103,6.0,11.0,79,0.00,,,0.00,292.000000,,2013-10-15 15:11:00,
2013-10-15 11:22:00,59.0,52.0,-100.00,ESE,103,6.0,11.0,79,0.00,,,0.00,292.000000,,2013-10-15 15:22:00,
2013-10-15 11:53:00,62.0,52.0,-100.00,East,99,3.0,11.0,71,0.00,,,0.00,315.000000,,2013-10-15 15:53:00,
2013-10-15 12:03:00,62.0,52.0,-100.00,East,99,3.0,11.0,71,0.00,,,0.00,315.000000,,2013-10-15 16:03:00,
2013-10-15 12:13:00,62.0,52.0,-100.00,East,99,3.0,11.0,71,0.00,,,0.00,315.000000,,2013-10-15 16:13:00,
2013-10-15 12:23:00,62.0,52.0,-100.00,East,99,3.0,11.0,71,0.00,,,0.00,315.000000,,2013-10-15 16:23:00,
2013-10-15 12:53:00,65.0,53.0,-100.00,WSW,239,2.0,7.0,64,0.00,,,0.00,351.000000,,2013-10-15 16:53:00,
2013-10-15 13:03:00,65.0,53.0,-100.00,WSW,239,2.0,7.0,64,0.00,,,0.00,351.000000,,2013-10-15 17:03:00,
2013-10-15 13:12:00,65.0,53.0,-100.00,WSW,239,2.0,7.0,64,0.00,,,0.00,351.000000,,2013-10-15 17:12:00,
2013-10-15 13:22:00,65.0,53.0,-100.00,WSW,239,2.0,7.0,64,0.00,,,0.00,351.000000,,2013-10-15 17:22:00,
2013-10-15 13:53:00,67.0,54.0,-100.00,SSW,212,3.0,7.0,63,0.00,,,0.00,399.000000,,2013-10-15 17:53:00,
2013-10-15 14:02:00,67.0,54.0,-100.00,SSW,212,3.0,7.0,63,0.00,,,0.00,399.000000,,2013-10-15 18:02:00,
2013-10-15 14:12:00,67.0,54.0,-100.00,SSW,212,3.0,7.0,63,0.00,,,0.00,399.000000,,2013-10-15 18:12:00,
2013-10-15 14:22:00,67.0,54.0,-100.00,SSW,212,3.0,7.0,63,0.00,,,0.00,399.000000,,2013-10-15 18:22:00,
2013-10-15 14:52:00,69.0,55.0,-100.00,West,281,3.0,7.0,60,0.00,,,0.00,356.000000,,2013-10-15 18:52:00,
2013-10-15 15:01:00,69.0,55.0,-100.00,West,281,3.0,7.0,60,0.00,,,0.00,356.000000,,2013-10-15 19:01:00,
2013-10-15 15:12:00,69.0,55.0,-100.00,West,281,3.0,7.0,60,0.00,,,0.00,356.000000,,2013-10-15 19:12:00,
2013-10-15 15:22:00,69.0,55.0,-100.00,West,281,3.0,7.0,60,0.00,,,0.00,356.000000,,2013-10-15 19:22:00,
2013-10-15 15:52:00,70.0,53.0,-100.00,SSE,151,5.0,13.0,54,0.00,,,0.00,408.000000,,2013-10-15 19:52:00,
2013-10-15 16:03:00,70.0,53.0,-100.00,SSE,151,5.0,13.0,54,0.00,,,0.00,408.000000,,2013-10-15 20:03:00,
2013-10-15 16:12:00,70.0,53.0,-100.00,SSE,151,5.0,13.0,54,0.00,,,0.00,408.000000,,2013-10-15 20:12:00,
2013-10-15 16:22:00,70.0,53.0,-100.00,SSE,151,5.0,13.0,54,0.00,,,0.00,408.000000,,2013-10-15 20:22:00,
2013-10-15 16:52:00,68.0,54.0,-100.00,SSE,167,2.0,7.0,61,0.00,,,0.00,207.000000,,2013-10-15 20:52:00,
2013-10-15 17:02:00,68.0,54.0,-100.00,SSE,167,2.0,7.0,61,0.00,,,0.00,207.000000,,2013-10-15 21:02:00,
2013-10-15 17:13:00,68.0,54.0,-100.00,SSE,167,2.0,7.0,61,0.00,,,0.00,207.000000,,2013-10-15 21:13:00,
2013-10-15 17:22:00,68.0,54.0,-100.00,SSE,167,2.0,7.0,61,0.00,,,0.00,207.000000,,2013-10-15 21:22:00,
2013-10-15 17:54:00,66.0,53.0,-100.00,South,187,2.0,7.0,63,0.00,,,0.00,162.000000,,2013-10-15 21:54:00,
2013-10-15 18:04:00,66.0,53.0,-100.00,South,187,2.0,7.0,63,0.00,,,0.00,162.000000,,2013-10-15 22:04:00,
2013-10-15 18:13:00,66.0,53.0,-100.00,South,187,2.0,7.0,63,0.00,,,0.00,162.000000,,2013-10-15 22:13:00,
2013-10-15 18:23:00,66.0,53.0,-100.00,South,187,2.0,7.0,63,0.00,,,0.00,162.000000,,2013-10-15 22:23:00,
2013-10-15 18:54:00,61.0,53.0,-100.00,SSE,161,0.0,4.0,76,0.00,,,0.00,24.000000,,2013-10-15 22:54:00,
2013-10-15 19:03:00,61.0,53.0,-100.00,SSE,161,0.0,4.0,76,0.00,,,0.00,24.000000,,2013-10-15 23:03:00,
2013-10-15 19:12:00,61.0,53.0,-100.00,SSE,161,0.0,4.0,76,0.00,,,0.00,24.000000,,2013-10-15 23:12:00,
2013-10-15 19:22:00,61.0,53.0,-100.00,SSE,161,0.0,4.0,76,0.00,,,0.00,24.000000,,2013-10-15 23:22:00,
2013-10-15 19:53:00,59.0,54.0,-100.00,SSE,148,1.0,4.0,83,0.00,,,0.00,0.000000,,2013-10-15 23:53:00,
2013-10-15 20:02:00,59.0,54.0,-100.00,SSE,148,1.0,4.0,83,0.00,,,0.00,0.000000,,2013-10-16 00:02:00,
2013-10-15 20:12:00,59.0,54.0,-100.00,SSE,148,1.0,4.0,83,0.00,,,0.00,0.000000,,2013-10-16 00:12:00,
2013-10-15 20:22:00,59.0,54.0,-100.00,SSE,148,1.0,4.0,83,0.00,,,0.00,0.000000,,2013-10-16 00:22:00,
2013-10-15 20:52:00,59.0,54.0,-100.00,ESE,121,3.0,6.0,85,0.00,,,0.00,0.000000,,2013-10-16 00:52:00,
2013-10-15 21:02:00,59.0,54.0,-100.00,ESE,121,3.0,6.0,85,0.00,,,0.00,0.000000,,2013-10-16 01:02:00,
2013-10-15 21:11:00,59.0,54.0,-100.00,ESE,121,3.0,6.0,85,0.00,,,0.00,0.000000,,2013-10-16 01:11:00,
2013-10-15 21:22:00,59.0,54.0,-100.00,ESE,121,3.0,6.0,85,0.00,,,0.00,0.000000,,2013-10-16 01:22:00,
2013-10-15 21:53:00,59.0,54.0,-100.00,SE,133,1.0,6.0,85,0.00,,,0.00,0.000000,,2013-10-16 01:53:00,
2013-10-15 22:02:00,59.0,54.0,-100.00,SE,133,1.0,6.0,85,0.00,,,0.00,0.000000,,2013-10-16 02:02:00,
2013-10-15 22:12:00,59.0,54.0,-100.00,SE,133,1.0,6.0,85,0.00,,,0.00,0.000000,,2013-10-16 02:12:00,
2013-10-15 22:22:00,59.0,54.0,-100.00,SE,133,1.0,6.0,85,0.00,,,0.00,0.000000,,2013-10-16 02:22:00,
2013-10-15 22:52:00,59.0,54.0,-100.00,SSW,209,1.0,3.0,85,0.00,,,0.00,0.000000,,2013-10-16 02:52:00,
2013-10-15 23:02:00,59.0,54.0,-100.00,SSW,209,1.0,3.0,85,0.00,,,0.00,0.000000,,2013-10-16 03:02:00,
2013-10-15 23:11:00,59.0,54.0,-100.00,SSW,209,1.0,3.0,85,0.00,,,0.00,0.000000,,2013-10-16 03:11:00,
2013-10-15 23:22:00,59.0,54.0,-100.00,SSW,209,1.0,3.0,85,0.00,,,0.00,0.000000,,2013-10-16 03:22:00,
2013-10-15 23:55:00,62.0,54.0,-100.00,SSW,207,2.0,8.0,74,0.00,,,0.00,0.000000,,2013-10-16 03:55:00,